Time;durP1;ratioP1;P1;durP2;ratioP2;P2;SDS_P1;SDS_P2;PMS_P1;PMS_P2;Temp;Humidity;BMP_temperature;BMP_pressure;BME280_temperature;BME280_humidity;BME280_pressure;Samples;Min_cycle;Max_cycle;Signal;HPM_P1;HPM_P2
2023/04/05 00:00:07;;;;;;;11.68;7.68;;;;;;;;;;5058610;28;20520;-86
2023/04/05 00:02:35;;;;;;;13.57;7.43;;;;;;;;;;5058845;28;20048;-86
2023/04/05 00:05:04;;;;;;;9.40;7.22;;;;;;;;;;5058767;28;20408;-87
2023/04/05 00:07:33;;;;;;;11.18;6.47;;;;;;;;;;5075952;28;20128;-86
2023/04/05 00:10:00;;;;;;;11.32;7.13;;;;;;;;;;5058136;28;20056;-86
2023/04/05 00:12:27;;;;;;;12.02;7.05;;;;;;;;;;5058274;28;20055;-86
2023/04/05 00:14:55;;;;;;;10.18;7.00;;;;;;;;;;5058186;28;20497;-86
2023/04/05 00:17:22;;;;;;;8.85;6.68;;;;;;;;;;5058494;28;20515;-86
2023/04/05 00:19:56;;;;;;;6.80;6.10;;;;;;;;;;5058061;28;20055;-87
2023/04/05 00:22:24;;;;;;;9.75;6.65;;;;;;;;;;5057519;28;20052;-87
2023/04/05 00:24:51;;;;;;;7.35;5.30;;;;;;;;;;5057932;28;20053;-87
2023/04/05 00:27:19;;;;;;;6.60;5.72;;;;;;;;;;5075718;28;20048;-85
2023/04/05 00:29:46;;;;;;;7.93;6.05;;;;;;;;;;5058024;28;20059;-87
2023/04/05 00:32:13;;;;;;;13.00;6.28;;;;;;;;;;5057590;28;20045;-87
2023/04/05 00:34:40;;;;;;;10.80;6.32;;;;;;;;;;5057844;28;20049;-87
2023/04/05 00:37:11;;;;;;;7.10;6.20;;;;;;;;;;5075677;28;20044;-87
2023/04/05 00:39:39;;;;;;;8.23;5.93;;;;;;;;;;5075450;28;20055;-87
2023/04/05 00:42:06;;;;;;;7.07;5.68;;;;;;;;;;5058077;28;20517;-87
2023/04/05 00:44:33;;;;;;;8.15;6.00;;;;;;;;;;5075275;28;20495;-87
2023/04/05 00:47:04;;;;;;;11.43;6.25;;;;;;;;;;5057854;28;20052;-87
2023/04/05 00:49:32;;;;;;;9.07;6.10;;;;;;;;;;5057968;28;20048;-87
2023/04/05 00:51:59;;;;;;;11.30;6.10;;;;;;;;;;5057701;28;20496;-87
2023/04/05 00:54:28;;;;;;;9.15;6.45;;;;;;;;;;5075275;28;20056;-87
2023/04/05 00:56:59;;;;;;;7.80;5.82;;;;;;;;;;5057831;28;20095;-87
2023/04/05 00:59:27;;;;;;;9.50;6.30;;;;;;;;;;5075181;28;20488;-86
2023/04/05 01:01:57;;;;;;;12.18;7.43;;;;;;;;;;5057834;28;20347;-87
2023/04/05 01:04:26;;;;;;;9.10;6.80;;;;;;;;;;5075348;28;20135;-87
2023/04/05 01:07:05;;;;;;;7.35;6.22;;;;;;;;;;5057169;28;20053;-87
2023/04/05 01:09:32;;;;;;;6.95;5.78;;;;;;;;;;5057086;28;20056;-87
2023/04/05 01:12:02;;;;;;;9.63;6.95;;;;;;;;;;5057262;28;20480;-87
2023/04/05 01:14:29;;;;;;;6.72;6.10;;;;;;;;;;5075105;28;20056;-87
2023/04/05 01:16:57;;;;;;;7.47;6.57;;;;;;;;;;5057235;28;20055;-87
2023/04/05 01:19:29;;;;;;;9.93;6.03;;;;;;;;;;5074660;28;20431;-87
2023/04/05 01:22:12;;;;;;;6.38;5.78;;;;;;;;;;5056965;28;20091;-87
2023/04/05 01:25:01;;;;;;;11.63;5.82;;;;;;;;;;5057320;28;20052;-87
2023/04/05 01:27:38;;;;;;;7.03;5.70;;;;;;;;;;5056908;28;20048;-87
2023/04/05 01:30:09;;;;;;;7.35;6.07;;;;;;;;;;5057109;28;20068;-86
2023/04/05 01:32:40;;;;;;;11.35;5.90;;;;;;;;;;5057032;28;20056;-86
2023/04/05 01:35:16;;;;;;;8.60;5.97;;;;;;;;;;5074554;28;20052;-86
2023/04/05 01:37:45;;;;;;;7.72;5.75;;;;;;;;;;5057042;28;20052;-87
2023/04/05 01:40:12;;;;;;;10.25;6.07;;;;;;;;;;5056334;28;20432;-87
2023/04/05 01:42:39;;;;;;;7.60;6.20;;;;;;;;;;5056922;28;20041;-86
2023/04/05 01:45:06;;;;;;;8.88;6.60;;;;;;;;;;5074246;28;20048;-87
2023/04/05 01:47:33;;;;;;;10.13;6.82;;;;;;;;;;5073892;28;20052;-87
2023/04/05 01:50:01;;;;;;;8.50;6.75;;;;;;;;;;5056695;28;20076;-86
2023/04/05 01:52:28;;;;;;;11.35;7.22;;;;;;;;;;5056324;28;20071;-87
2023/04/05 01:54:55;;;;;;;13.65;6.85;;;;;;;;;;5056142;28;20056;-86
2023/04/05 01:57:23;;;;;;;9.98;7.05;;;;;;;;;;5056290;28;20511;-86
2023/04/05 01:59:50;;;;;;;8.93;7.18;;;;;;;;;;5073604;28;20048;-87
2023/04/05 02:02:17;;;;;;;11.32;7.00;;;;;;;;;;5073770;28;20311;-86
2023/04/05 02:04:44;;;;;;;9.25;7.13;;;;;;;;;;5056333;28;20049;-87
2023/04/05 02:07:12;;;;;;;8.95;6.28;;;;;;;;;;5074066;28;20408;-87
2023/04/05 02:09:39;;;;;;;9.35;6.38;;;;;;;;;;5073755;28;20062;-86
2023/04/05 02:12:06;;;;;;;9.48;6.50;;;;;;;;;;5072431;28;20061;-86
2023/04/05 02:14:34;;;;;;;8.98;6.82;;;;;;;;;;5056129;28;20041;-86
2023/04/05 02:17:02;;;;;;;11.52;6.90;;;;;;;;;;5056137;28;20052;-87
2023/04/05 02:19:36;;;;;;;9.70;6.63;;;;;;;;;;5056040;28;20048;-86
2023/04/05 02:22:03;;;;;;;7.50;6.38;;;;;;;;;;5065734;28;20057;-86
2023/04/05 02:24:30;;;;;;;8.27;6.93;;;;;;;;;;5053391;28;20485;-86
2023/04/05 02:26:57;;;;;;;9.38;6.50;;;;;;;;;;5035727;28;20059;-87
2023/04/05 02:29:25;;;;;;;9.75;6.93;;;;;;;;;;5053540;28;20048;-86
2023/04/05 02:31:52;;;;;;;10.30;6.95;;;;;;;;;;5052878;28;20084;-87
2023/04/05 02:34:21;;;;;;;8.48;6.68;;;;;;;;;;5035997;28;20040;-85
2023/04/05 02:36:51;;;;;;;11.35;7.80;;;;;;;;;;5053018;28;20052;-86
2023/04/05 02:39:18;;;;;;;10.73;7.03;;;;;;;;;;5035885;28;20045;-86
2023/04/05 02:41:46;;;;;;;9.95;7.28;;;;;;;;;;5035705;28;20080;-86
2023/04/05 02:44:13;;;;;;;10.75;7.70;;;;;;;;;;5035284;28;20052;-86
2023/04/05 02:46:40;;;;;;;10.02;7.00;;;;;;;;;;5052908;28;20051;-86
2023/04/05 02:49:08;;;;;;;9.73;6.88;;;;;;;;;;5035536;28;20057;-86
2023/04/05 02:51:35;;;;;;;12.07;6.75;;;;;;;;;;5035758;28;20053;-86
2023/04/05 02:54:02;;;;;;;11.30;6.78;;;;;;;;;;5035589;28;20049;-86
2023/04/05 02:56:30;;;;;;;9.70;7.15;;;;;;;;;;5054676;28;20045;-85
2023/04/05 02:58:57;;;;;;;11.20;7.07;;;;;;;;;;5056838;28;20059;-85
2023/04/05 03:01:24;;;;;;;10.65;8.30;;;;;;;;;;5039925;28;20083;-86
2023/04/05 03:03:52;;;;;;;11.30;8.07;;;;;;;;;;5039159;28;20608;-85
2023/04/05 03:06:19;;;;;;;16.10;9.18;;;;;;;;;;5039347;28;20049;-86
2023/04/05 03:08:48;;;;;;;17.50;8.68;;;;;;;;;;5039199;28;20081;-85
2023/04/05 03:11:15;;;;;;;12.80;8.82;;;;;;;;;;5057083;28;20049;-86
2023/04/05 03:13:42;;;;;;;12.10;8.40;;;;;;;;;;5039347;28;20053;-85
2023/04/05 03:16:09;;;;;;;10.68;6.82;;;;;;;;;;5039294;28;20408;-85
2023/04/05 03:18:37;;;;;;;10.18;6.88;;;;;;;;;;5039612;28;20045;-85
2023/04/05 03:21:04;;;;;;;13.48;7.57;;;;;;;;;;5039211;28;20127;-85
2023/04/05 03:23:32;;;;;;;9.02;6.70;;;;;;;;;;5039185;28;20067;-85
2023/04/05 03:26:01;;;;;;;9.15;7.32;;;;;;;;;;5039027;28;20139;-84
2023/04/05 03:28:31;;;;;;;9.43;7.05;;;;;;;;;;5038799;28;20048;-85
2023/04/05 03:30:58;;;;;;;8.02;7.00;;;;;;;;;;5038720;28;20114;-85
2023/04/05 03:33:25;;;;;;;8.38;6.88;;;;;;;;;;5039141;28;20049;-85
2023/04/05 03:35:52;;;;;;;9.80;7.32;;;;;;;;;;5056567;28;20055;-86
2023/04/05 03:38:20;;;;;;;9.95;7.60;;;;;;;;;;5039044;28;20701;-85
2023/04/05 03:40:47;;;;;;;11.98;8.43;;;;;;;;;;5038784;28;20114;-84
2023/04/05 03:43:15;;;;;;;12.32;7.07;;;;;;;;;;5038986;28;20052;-85
2023/04/05 03:45:42;;;;;;;14.05;8.00;;;;;;;;;;5056329;28;20493;-85
2023/04/05 03:48:10;;;;;;;13.45;8.07;;;;;;;;;;5056326;28;20051;-85
2023/04/05 03:50:37;;;;;;;13.85;7.82;;;;;;;;;;5038625;28;20049;-85
2023/04/05 03:53:04;;;;;;;10.45;7.93;;;;;;;;;;5055903;28;20051;-84
2023/04/05 03:55:31;;;;;;;12.07;7.38;;;;;;;;;;5038331;28;20045;-84
2023/04/05 03:57:58;;;;;;;10.98;7.75;;;;;;;;;;5038485;28;20128;-85
2023/04/05 04:00:25;;;;;;;12.20;8.88;;;;;;;;;;5038491;28;20501;-85
2023/04/05 04:02:53;;;;;;;14.90;9.20;;;;;;;;;;5038334;28;20052;-85
2023/04/05 04:05:20;;;;;;;11.63;9.45;;;;;;;;;;5055558;28;20120;-84
2023/04/05 04:07:48;;;;;;;17.05;9.68;;;;;;;;;;5037008;28;20087;-85
2023/04/05 04:10:16;;;;;;;16.05;9.15;;;;;;;;;;5037810;28;20060;-85
2023/04/05 04:12:44;;;;;;;14.60;8.65;;;;;;;;;;5037920;28;20405;-84
2023/04/05 04:15:11;;;;;;;15.45;9.20;;;;;;;;;;5055355;28;20045;-84
2023/04/05 04:17:39;;;;;;;11.88;8.77;;;;;;;;;;5055574;28;20048;-84
2023/04/05 04:20:09;;;;;;;15.05;9.70;;;;;;;;;;5037886;28;20079;-84
2023/04/05 04:22:39;;;;;;;16.50;9.75;;;;;;;;;;5055522;28;20073;-85
2023/04/05 04:25:11;;;;;;;15.20;11.02;;;;;;;;;;5037419;28;20056;-85
2023/04/05 04:27:41;;;;;;;14.30;9.40;;;;;;;;;;5037762;28;20041;-85
2023/04/05 04:30:09;;;;;;;9.68;8.18;;;;;;;;;;5037298;28;20131;-85
2023/04/05 04:32:52;;;;;;;10.18;9.10;;;;;;;;;;5055075;28;20048;-85
2023/04/05 04:35:27;;;;;;;11.43;8.02;;;;;;;;;;5055302;28;20045;-84
2023/04/05 04:37:59;;;;;;;9.43;7.65;;;;;;;;;;5054959;28;20084;-84
2023/04/05 04:40:39;;;;;;;8.88;6.80;;;;;;;;;;5037490;28;20482;-84
2023/04/05 04:43:08;;;;;;;9.63;7.45;;;;;;;;;;5037144;28;20049;-85
2023/04/05 04:45:38;;;;;;;9.98;7.97;;;;;;;;;;5036733;28;20561;-84
2023/04/05 04:48:07;;;;;;;13.77;7.85;;;;;;;;;;5055185;28;20137;-85
2023/04/05 04:50:34;;;;;;;10.27;7.72;;;;;;;;;;5037164;28;20128;-84
2023/04/05 04:53:01;;;;;;;12.13;7.53;;;;;;;;;;5037082;28;20049;-84
2023/04/05 04:55:29;;;;;;;9.05;7.22;;;;;;;;;;5036741;28;20485;-84
2023/04/05 04:57:56;;;;;;;11.15;7.68;;;;;;;;;;5054632;28;20068;-85
2023/04/05 05:00:24;;;;;;;14.05;8.70;;;;;;;;;;5036948;28;20140;-84
2023/04/05 05:02:52;;;;;;;12.35;8.88;;;;;;;;;;5036930;28;20048;-85
2023/04/05 05:05:22;;;;;;;10.82;7.97;;;;;;;;;;5054292;28;20132;-84
2023/04/05 05:07:51;;;;;;;10.38;8.10;;;;;;;;;;5036792;28;20064;-85
2023/04/05 05:10:19;;;;;;;10.73;8.10;;;;;;;;;;5054344;28;20053;-84
2023/04/05 05:12:47;;;;;;;11.10;8.50;;;;;;;;;;5036809;28;20053;-84
2023/04/05 05:15:14;;;;;;;14.77;8.38;;;;;;;;;;5054135;28;20044;-84
2023/04/05 05:17:42;;;;;;;10.57;8.05;;;;;;;;;;5054193;28;20148;-84
2023/04/05 05:20:09;;;;;;;12.05;8.13;;;;;;;;;;5036573;28;20447;-84
2023/04/05 05:22:38;;;;;;;14.65;9.40;;;;;;;;;;5036299;28;20056;-84
2023/04/05 05:25:06;;;;;;;12.73;10.07;;;;;;;;;;5036342;28;20053;-84
2023/04/05 05:27:33;;;;;;;14.70;9.32;;;;;;;;;;5036338;28;20045;-84
2023/04/05 05:30:01;;;;;;;12.38;9.20;;;;;;;;;;5036552;28;20056;-84
2023/04/05 05:32:28;;;;;;;12.68;9.02;;;;;;;;;;5053794;28;20052;-84
2023/04/05 05:34:55;;;;;;;20.15;12.80;;;;;;;;;;5035844;28;20099;-84
2023/04/05 05:37:30;;;;;;;18.85;12.05;;;;;;;;;;5053719;28;20048;-84
2023/04/05 05:39:57;;;;;;;21.85;12.55;;;;;;;;;;5036329;28;20056;-84
2023/04/05 05:42:26;;;;;;;26.70;14.57;;;;;;;;;;5036591;28;20500;-84
2023/04/05 05:44:53;;;;;;;40.13;22.50;;;;;;;;;;5036300;28;20049;-85
2023/04/05 05:47:20;;;;;;;44.95;26.90;;;;;;;;;;5053952;28;20075;-85
2023/04/05 05:49:51;;;;;;;45.63;29.38;;;;;;;;;;5036401;28;20053;-86
2023/04/05 05:52:18;;;;;;;38.92;26.20;;;;;;;;;;5036417;28;20049;-85
2023/04/05 05:54:46;;;;;;;36.00;24.85;;;;;;;;;;5036013;28;20056;-86
2023/04/05 05:57:13;;;;;;;31.27;19.70;;;;;;;;;;5053858;28;20091;-85
2023/04/05 05:59:40;;;;;;;32.85;21.08;;;;;;;;;;5036342;28;20045;-87
2023/04/05 06:02:07;;;;;;;27.98;18.00;;;;;;;;;;5036458;28;20059;-86
2023/04/05 06:04:35;;;;;;;24.58;17.67;;;;;;;;;;5053987;28;20047;-86
2023/04/05 06:07:05;;;;;;;17.13;11.65;;;;;;;;;;5053997;28;20123;-87
2023/04/05 06:09:34;;;;;;;16.02;9.50;;;;;;;;;;5036279;28;20056;-88
2023/04/05 06:12:01;;;;;;;23.70;6.85;;;;;;;;;;5036274;28;20045;-88
2023/04/05 06:14:29;;;;;;;9.93;5.53;;;;;;;;;;5036292;28;20490;-88
2023/04/05 06:16:56;;;;;;;21.63;5.10;;;;;;;;;;5035940;28;20052;-89
2023/04/05 06:19:23;;;;;;;11.95;5.82;;;;;;;;;;5036230;28;20523;-90
2023/04/05 06:21:50;;;;;;;17.88;6.53;;;;;;;;;;5036185;28;20409;-89
2023/04/05 06:24:20;;;;;;;6.47;4.38;;;;;;;;;;5053845;28;20049;-91
2023/04/05 06:26:47;;;;;;;41.60;7.00;;;;;;;;;;5053473;28;20136;-91
2023/04/05 06:29:15;;;;;;;19.33;4.30;;;;;;;;;;5036239;28;20049;-92
2023/04/05 06:31:42;;;;;;;19.85;5.20;;;;;;;;;;5035172;28;20064;-91
2023/04/05 06:34:09;;;;;;;19.13;3.90;;;;;;;;;;5053198;28;20075;-93
2023/04/05 06:36:36;;;;;;;13.07;4.13;;;;;;;;;;5035851;28;20114;-93
2023/04/05 06:39:04;;;;;;;9.85;3.38;;;;;;;;;;5053514;28;20063;-93
2023/04/05 06:41:31;;;;;;;7.45;3.25;;;;;;;;;;5053713;28;20056;-93
2023/04/05 06:43:58;;;;;;;12.48;3.95;;;;;;;;;;5055534;28;20493;-95
2023/04/05 06:46:26;;;;;;;15.68;3.55;;;;;;;;;;5036513;28;20120;-95
2023/04/05 06:48:53;;;;;;;13.10;4.18;;;;;;;;;;5036135;28;20671;-94
2023/04/05 06:51:20;;;;;;;12.88;3.47;;;;;;;;;;5036103;28;20059;-94
2023/04/05 06:53:47;;;;;;;12.95;4.00;;;;;;;;;;5036013;28;20064;-95
2023/04/05 06:56:15;;;;;;;17.20;4.18;;;;;;;;;;5036310;28;20076;-94
2023/04/05 06:58:43;;;;;;;12.30;4.13;;;;;;;;;;5035700;28;20048;-93
2023/04/05 07:01:10;;;;;;;11.32;3.40;;;;;;;;;;5053544;28;20047;-92
2023/04/05 07:03:38;;;;;;;13.60;4.00;;;;;;;;;;5053711;28;20413;-91
2023/04/05 07:06:05;;;;;;;12.80;3.42;;;;;;;;;;5036019;28;20405;-92
2023/04/05 07:08:32;;;;;;;13.20;3.78;;;;;;;;;;5035550;28;20053;-90
2023/04/05 07:11:00;;;;;;;21.83;4.95;;;;;;;;;;5036362;28;20416;-91
2023/04/05 07:13:27;;;;;;;19.30;4.28;;;;;;;;;;5036158;28;20056;-91
2023/04/05 07:16:01;;;;;;;23.67;3.92;;;;;;;;;;5036047;28;20045;-91
2023/04/05 07:18:28;;;;;;;28.63;4.82;;;;;;;;;;5036118;28;20048;-91
2023/04/05 07:21:00;;;;;;;14.73;3.60;;;;;;;;;;5053414;28;20148;-91
2023/04/05 07:23:28;;;;;;;20.50;4.00;;;;;;;;;;5035905;28;20132;-92
2023/04/05 07:25:58;;;;;;;15.15;3.42;;;;;;;;;;5053051;28;20044;-92
2023/04/05 07:28:26;;;;;;;12.40;3.78;;;;;;;;;;5036062;28;20378;-91
2023/04/05 07:30:53;;;;;;;13.80;3.35;;;;;;;;;;5035662;28;20087;-91
2023/04/05 07:33:21;;;;;;;18.27;3.45;;;;;;;;;;5035666;28;20056;-91
2023/04/05 07:35:52;;;;;;;15.35;3.40;;;;;;;;;;5052411;28;20060;-90
2023/04/05 07:38:20;;;;;;;9.38;2.42;;;;;;;;;;5035734;28;20472;-90
2023/04/05 07:40:48;;;;;;;16.20;3.25;;;;;;;;;;5035683;28;20111;-90
2023/04/05 07:43:16;;;;;;;8.90;2.95;;;;;;;;;;5038207;28;20512;-91
2023/04/05 07:45:43;;;;;;;14.00;3.45;;;;;;;;;;5056584;28;20048;-90
2023/04/05 07:48:10;;;;;;;14.23;3.97;;;;;;;;;;5039067;28;20060;-90
2023/04/05 07:50:39;;;;;;;12.30;3.75;;;;;;;;;;5056379;28;20095;-90
2023/04/05 07:53:07;;;;;;;16.20;3.72;;;;;;;;;;5056686;28;20068;-90
2023/04/05 07:55:37;;;;;;;10.02;3.05;;;;;;;;;;5039006;28;20140;-91
2023/04/05 07:58:04;;;;;;;7.78;3.08;;;;;;;;;;5056211;28;20052;-90
2023/04/05 08:00:32;;;;;;;9.80;3.03;;;;;;;;;;5038819;28;20053;-91
2023/04/05 08:02:59;;;;;;;6.65;2.40;;;;;;;;;;5038619;28;20511;-90
2023/04/05 08:05:28;;;;;;;40.53;4.78;;;;;;;;;;5038959;28;20049;-90
2023/04/05 08:07:56;;;;;;;5.47;2.72;;;;;;;;;;5038606;28;20559;-90
2023/04/05 08:10:24;;;;;;;16.13;2.30;;;;;;;;;;5036170;28;20095;-90
2023/04/05 08:12:53;;;;;;;9.88;2.60;;;;;;;;;;5017313;28;20107;-90
2023/04/05 08:15:20;;;;;;;6.97;2.63;;;;;;;;;;5018989;28;20140;-92
2023/04/05 08:17:47;;;;;;;10.07;2.50;;;;;;;;;;5018761;28;20490;-91
2023/04/05 08:20:14;;;;;;;4.30;2.20;;;;;;;;;;5018889;28;20103;-90
2023/04/05 08:22:42;;;;;;;6.88;2.05;;;;;;;;;;5018791;28;20103;-90
2023/04/05 08:25:09;;;;;;;2.85;1.65;;;;;;;;;;5019064;28;20049;-91
2023/04/05 08:27:36;;;;;;;3.58;2.15;;;;;;;;;;5037548;28;20041;-90
2023/04/05 08:30:04;;;;;;;5.28;2.50;;;;;;;;;;5054728;28;20049;-90
2023/04/05 08:32:32;;;;;;;4.05;2.13;;;;;;;;;;5055105;28;20451;-91
2023/04/05 08:34:59;;;;;;;6.88;2.25;;;;;;;;;;5055842;28;20063;-90
2023/04/05 08:37:29;;;;;;;3.47;2.17;;;;;;;;;;5054865;28;20477;-91
2023/04/05 08:39:56;;;;;;;5.75;2.08;;;;;;;;;;5055963;28;20051;-91
2023/04/05 08:42:29;;;;;;;3.58;2.42;;;;;;;;;;5054940;28;20091;-91
2023/04/05 08:44:57;;;;;;;6.47;2.58;;;;;;;;;;5055205;28;20124;-91
2023/04/05 08:47:25;;;;;;;5.80;2.33;;;;;;;;;;5054741;28;20083;-91
2023/04/05 08:49:52;;;;;;;3.05;2.17;;;;;;;;;;5054721;28;20447;-92
2023/04/05 08:52:19;;;;;;;2.92;2.08;;;;;;;;;;5054319;28;20053;-90
2023/04/05 08:54:47;;;;;;;3.10;1.60;;;;;;;;;;5053730;28;20060;-91
2023/04/05 08:57:17;;;;;;;4.53;2.10;;;;;;;;;;5055123;28;20099;-91
2023/04/05 08:59:45;;;;;;;3.40;2.05;;;;;;;;;;5055385;28;20060;-92
2023/04/05 09:02:18;;;;;;;14.85;2.63;;;;;;;;;;5054342;28;20095;-91
2023/04/05 09:04:47;;;;;;;5.30;2.25;;;;;;;;;;5055164;28;20052;-91
2023/04/05 09:07:14;;;;;;;2.25;2.03;;;;;;;;;;5054231;28;20076;-91
2023/04/05 09:09:43;;;;;;;4.20;3.30;;;;;;;;;;5053803;28;20397;-91
2023/04/05 09:12:11;;;;;;;5.40;1.85;;;;;;;;;;5037536;28;20052;-90
2023/04/05 09:14:38;;;;;;;9.63;8.63;;;;;;;;;;5037144;28;20049;-90
2023/04/05 09:17:05;;;;;;;3.38;1.90;;;;;;;;;;5037388;28;20508;-90
2023/04/05 09:19:33;;;;;;;2.85;1.63;;;;;;;;;;5037679;28;20052;-90
2023/04/05 09:22:07;;;;;;;3.95;3.63;;;;;;;;;;5036934;28;20055;-91
2023/04/05 09:24:42;;;;;;;3.70;1.80;;;;;;;;;;5037264;28;20053;-91
2023/04/05 09:27:10;;;;;;;3.83;2.33;;;;;;;;;;5037081;28;20135;-91
2023/04/05 09:29:38;;;;;;;5.38;2.15;;;;;;;;;;5037368;28;20049;-90
2023/04/05 09:32:06;;;;;;;1.60;1.42;;;;;;;;;;5037520;28;20053;-91
2023/04/05 09:34:37;;;;;;;2.22;2.00;;;;;;;;;;5037099;28;20060;-91
2023/04/05 09:37:20;;;;;;;3.75;3.28;;;;;;;;;;5037240;28;20128;-90
2023/04/05 09:39:49;;;;;;;2.22;2.05;;;;;;;;;;5036381;28;20053;-90
2023/04/05 09:42:18;;;;;;;2.13;1.55;;;;;;;;;;5054428;28;20055;-90
2023/04/05 09:44:56;;;;;;;4.15;1.95;;;;;;;;;;5036774;28;20045;-91
2023/04/05 09:47:26;;;;;;;2.40;1.83;;;;;;;;;;5037383;28;20041;-90
2023/04/05 09:49:53;;;;;;;2.63;1.70;;;;;;;;;;5036498;28;20048;-90
2023/04/05 09:52:24;;;;;;;3.78;1.95;;;;;;;;;;5037029;28;20045;-89
2023/04/05 09:54:59;;;;;;;2.55;1.70;;;;;;;;;;5036528;28;20045;-89
2023/04/05 09:57:28;;;;;;;2.42;1.83;;;;;;;;;;5036812;28;20131;-90
2023/04/05 09:59:55;;;;;;;4.22;2.20;;;;;;;;;;5054074;28;20059;-90
2023/04/05 10:02:23;;;;;;;7.10;2.03;;;;;;;;;;5036715;28;20049;-90
2023/04/05 10:04:51;;;;;;;5.32;2.08;;;;;;;;;;5036515;28;20406;-89
2023/04/05 10:07:19;;;;;;;2.97;2.42;;;;;;;;;;5036674;28;20045;-90
2023/04/05 10:09:47;;;;;;;2.55;2.03;;;;;;;;;;5036248;28;20096;-90
2023/04/05 10:12:32;;;;;;;5.30;2.30;;;;;;;;;;5035992;28;20049;-89
2023/04/05 10:15:00;;;;;;;4.85;1.83;;;;;;;;;;5036369;28;20045;-89
2023/04/05 10:17:32;;;;;;;2.97;1.67;;;;;;;;;;5054021;28;20140;-90
2023/04/05 10:20:13;;;;;;;1.67;1.60;;;;;;;;;;5036352;28;20554;-89
2023/04/05 10:22:59;;;;;;;3.58;2.10;;;;;;;;;;5035926;28;20052;-89
2023/04/05 10:25:31;;;;;;;3.65;2.15;;;;;;;;;;5036078;28;20059;-89
2023/04/05 10:28:19;;;;;;;3.33;2.38;;;;;;;;;;5036595;28;20501;-89
2023/04/05 10:30:48;;;;;;;52.80;4.72;;;;;;;;;;5029127;28;20136;-88
2023/04/05 10:33:21;;;;;;;4.80;2.47;;;;;;;;;;5035784;28;20503;-89
2023/04/05 10:36:00;;;;;;;4.50;1.95;;;;;;;;;;5053396;28;20618;-89
2023/04/05 10:38:35;;;;;;;2.58;2.17;;;;;;;;;;5036361;28;20053;-89
2023/04/05 10:41:09;;;;;;;3.10;2.15;;;;;;;;;;5053862;28;20041;-90
2023/04/05 10:43:37;;;;;;;4.68;1.92;;;;;;;;;;5036115;28;20456;-89
2023/04/05 10:46:06;;;;;;;2.50;1.63;;;;;;;;;;5053330;28;20048;-89
2023/04/05 10:48:47;;;;;;;2.90;2.03;;;;;;;;;;5035980;28;20041;-91
2023/04/05 10:51:15;;;;;;;5.10;2.30;;;;;;;;;;5035917;28;20077;-89
2023/04/05 10:53:43;;;;;;;2.00;1.80;;;;;;;;;;5053305;28;20057;-90
2023/04/05 10:56:11;;;;;;;2.72;1.80;;;;;;;;;;5035475;28;20091;-89
2023/04/05 10:58:41;;;;;;;4.65;1.90;;;;;;;;;;5036022;28;20068;-88
2023/04/05 11:01:09;;;;;;;2.55;2.00;;;;;;;;;;5036149;28;20049;-90
2023/04/05 11:03:46;;;;;;;6.30;4.22;;;;;;;;;;5035784;28;20046;-90
2023/04/05 11:06:17;;;;;;;12.13;7.25;;;;;;;;;;5053153;28;20481;-89
2023/04/05 11:08:45;;;;;;;39.88;33.72;;;;;;;;;;5035723;28;20053;-89
2023/04/05 11:11:15;;;;;;;110.28;101.30;;;;;;;;;;5035576;28;20049;-90
2023/04/05 11:13:50;;;;;;;2.97;2.63;;;;;;;;;;5035697;28;20045;-90
2023/04/05 11:16:18;;;;;;;3.25;2.65;;;;;;;;;;5035794;28;20052;-88
2023/04/05 11:18:46;;;;;;;5.15;2.35;;;;;;;;;;5039610;28;20049;-90
2023/04/05 11:21:24;;;;;;;4.55;3.88;;;;;;;;;;5057188;28;20440;-90
2023/04/05 11:24:05;;;;;;;9.57;5.13;;;;;;;;;;5039559;28;20124;-91
2023/04/05 11:26:39;;;;;;;18.70;13.80;;;;;;;;;;5039622;28;20440;-90
2023/04/05 11:29:07;;;;;;;3.00;2.30;;;;;;;;;;5056849;28;20049;-90
2023/04/05 11:31:34;;;;;;;3.13;1.90;;;;;;;;;;5056829;28;20045;-89
2023/04/05 11:34:09;;;;;;;55.72;37.83;;;;;;;;;;5039400;28;20106;-89
2023/04/05 11:36:40;;;;;;;12.05;2.40;;;;;;;;;;5039373;28;20128;-92
2023/04/05 11:39:20;;;;;;;5.40;4.63;;;;;;;;;;5039309;28;20485;-89
2023/04/05 11:41:53;;;;;;;27.52;15.68;;;;;;;;;;5039176;28;20044;-90
2023/04/05 11:44:22;;;;;;;3.67;3.38;;;;;;;;;;5057476;28;20131;-88
2023/04/05 11:46:50;;;;;;;2.35;2.15;;;;;;;;;;5061227;28;20095;-90
2023/04/05 11:49:19;;;;;;;3.05;1.98;;;;;;;;;;5044442;28;20048;-89
2023/04/05 11:51:48;;;;;;;3.70;1.98;;;;;;;;;;5044175;28;20140;-90
2023/04/05 11:54:30;;;;;;;13.63;9.93;;;;;;;;;;5044335;28;20561;-90
2023/04/05 11:56:58;;;;;;;4.05;3.65;;;;;;;;;;5060555;28;20065;-88
2023/04/05 11:59:36;;;;;;;3.60;2.38;;;;;;;;;;5043907;28;20052;-90
2023/04/05 12:02:06;;;;;;;2.13;1.83;;;;;;;;;;5061433;28;20071;-89
2023/04/05 12:04:34;;;;;;;2.30;1.60;;;;;;;;;;5041382;28;20102;-89
2023/04/05 12:07:09;;;;;;;3.45;1.98;;;;;;;;;;5040464;28;20053;-90
2023/04/05 12:09:54;;;;;;;4.13;2.05;;;;;;;;;;5038582;28;20099;-90
2023/04/05 12:12:21;;;;;;;2.35;1.80;;;;;;;;;;5038819;28;20485;-88
2023/04/05 12:14:49;;;;;;;1.83;1.73;;;;;;;;;;5038276;28;20091;-89
2023/04/05 12:17:16;;;;;;;2.10;1.90;;;;;;;;;;5038893;28;20041;-88
2023/04/05 12:19:43;;;;;;;1.83;1.70;;;;;;;;;;5038568;28;20136;-89
2023/04/05 12:22:11;;;;;;;3.83;2.00;;;;;;;;;;5056130;28;20080;-90
2023/04/05 12:24:38;;;;;;;2.03;1.60;;;;;;;;;;5056004;28;20056;-91
2023/04/05 12:27:06;;;;;;;5.20;2.00;;;;;;;;;;5058777;28;20057;-90
2023/04/05 12:29:33;;;;;;;3.65;2.08;;;;;;;;;;5037589;28;20048;-90
2023/04/05 12:32:03;;;;;;;2.20;2.00;;;;;;;;;;5038528;28;20045;-91
2023/04/05 12:34:30;;;;;;;4.15;2.53;;;;;;;;;;5038040;28;20049;-89
2023/04/05 12:37:01;;;;;;;2.22;2.00;;;;;;;;;;5038278;28;20495;-89
2023/04/05 12:39:31;;;;;;;2.88;2.38;;;;;;;;;;5037984;28;20068;-89
2023/04/05 12:41:59;;;;;;;5.70;2.10;;;;;;;;;;5055150;28;20135;-89
2023/04/05 12:44:30;;;;;;;3.88;2.13;;;;;;;;;;5038031;28;20051;-90
2023/04/05 12:47:01;;;;;;;2.65;1.95;;;;;;;;;;5038085;28;20048;-90
2023/04/05 12:49:29;;;;;;;5.70;4.03;;;;;;;;;;5055391;28;20443;-90
2023/04/05 12:52:01;;;;;;;14.23;9.85;;;;;;;;;;5054896;28;20413;-89
2023/04/05 12:54:31;;;;;;;3.55;2.00;;;;;;;;;;5037754;28;20131;-88
2023/04/05 12:56:58;;;;;;;2.88;2.10;;;;;;;;;;5037828;28;20490;-89
2023/04/05 12:59:25;;;;;;;7.25;5.00;;;;;;;;;;5037816;28;20053;-90
2023/04/05 13:01:52;;;;;;;4.70;2.67;;;;;;;;;;5037724;28;20049;-89
2023/04/05 13:04:21;;;;;;;6.68;5.00;;;;;;;;;;5055620;28;20048;-89
2023/04/05 13:06:49;;;;;;;3.67;2.67;;;;;;;;;;5037605;28;20140;-89
2023/04/05 13:09:16;;;;;;;8.55;6.35;;;;;;;;;;5055426;28;20068;-89
2023/04/05 13:11:44;;;;;;;8.93;6.07;;;;;;;;;;5055041;28;20052;-90
2023/04/05 13:14:11;;;;;;;6.60;3.85;;;;;;;;;;5037424;28;20404;-90
2023/04/05 13:16:38;;;;;;;5.90;2.25;;;;;;;;;;5055106;28;20045;-90
2023/04/05 13:19:06;;;;;;;5.47;2.13;;;;;;;;;;5055202;28;20048;-90
2023/04/05 13:21:33;;;;;;;3.33;2.00;;;;;;;;;;5037407;28;20057;-90
2023/04/05 13:24:00;;;;;;;5.38;4.05;;;;;;;;;;5036025;28;20345;-90
2023/04/05 13:26:27;;;;;;;2.63;2.42;;;;;;;;;;5037239;28;20044;-90
2023/04/05 13:28:55;;;;;;;5.57;3.22;;;;;;;;;;5053045;28;20075;-89
2023/04/05 13:31:22;;;;;;;18.75;10.25;;;;;;;;;;5054196;28;20481;-89
2023/04/05 13:33:49;;;;;;;13.07;5.82;;;;;;;;;;5034901;28;20079;-90
2023/04/05 13:36:16;;;;;;;3.58;2.33;;;;;;;;;;5053320;28;20152;-90
2023/04/05 13:38:44;;;;;;;4.95;2.17;;;;;;;;;;5037185;28;20049;-90
2023/04/05 13:41:11;;;;;;;2.95;2.22;;;;;;;;;;5054533;28;20531;-89
2023/04/05 13:43:38;;;;;;;2.20;2.10;;;;;;;;;;5037268;28;20080;-90
2023/04/05 13:46:05;;;;;;;5.78;2.40;;;;;;;;;;5036860;28;20485;-90
2023/04/05 13:48:33;;;;;;;3.25;2.30;;;;;;;;;;5036745;28;20049;-90
2023/04/05 13:51:00;;;;;;;5.03;2.45;;;;;;;;;;5036766;28;20071;-89
2023/04/05 13:53:27;;;;;;;3.30;2.42;;;;;;;;;;5054281;28;20056;-90
2023/04/05 13:55:54;;;;;;;2.92;2.25;;;;;;;;;;5036811;28;20135;-92
2023/04/05 13:58:22;;;;;;;15.93;6.13;;;;;;;;;;5054537;28;20051;-91
2023/04/05 14:00:49;;;;;;;2.58;2.10;;;;;;;;;;5056199;28;20140;-90
2023/04/05 14:03:16;;;;;;;3.58;2.60;;;;;;;;;;5038889;28;20053;-91
2023/04/05 14:05:44;;;;;;;5.85;2.85;;;;;;;;;;5039165;28;20095;-88
2023/04/05 14:08:15;;;;;;;5.95;2.70;;;;;;;;;;5039271;28;20052;-90
2023/04/05 14:10:42;;;;;;;5.07;3.15;;;;;;;;;;5037065;28;20045;-90
2023/04/05 14:13:11;;;;;;;6.68;5.15;;;;;;;;;;5040008;28;20049;-90
2023/04/05 14:15:38;;;;;;;4.47;3.60;;;;;;;;;;5053876;28;20049;-90
2023/04/05 14:18:06;;;;;;;3.65;2.92;;;;;;;;;;5036845;28;20053;-89
2023/04/05 14:20:34;;;;;;;3.75;2.67;;;;;;;;;;5038998;28;20057;-89
2023/04/05 14:23:01;;;;;;;6.00;3.97;;;;;;;;;;5056341;28;20072;-90
2023/04/05 14:25:28;;;;;;;2.28;1.77;;;;;;;;;;5036251;28;20052;-90
2023/04/05 14:27:55;;;;;;;10.60;7.22;;;;;;;;;;5036622;28;20048;-90
2023/04/05 14:30:23;;;;;;;5.22;1.98;;;;;;;;;;5053663;28;20054;-91
2023/04/05 14:32:50;;;;;;;31.88;13.55;;;;;;;;;;5036002;28;20123;-91
2023/04/05 14:35:17;;;;;;;12.98;8.02;;;;;;;;;;5053467;28;20489;-90
2023/04/05 14:37:44;;;;;;;2.65;2.20;;;;;;;;;;5036263;28;20059;-91
2023/04/05 14:40:11;;;;;;;4.75;2.53;;;;;;;;;;5053654;28;20045;-91
2023/04/05 14:42:39;;;;;;;6.78;4.97;;;;;;;;;;5035418;28;20049;-90
2023/04/05 14:45:16;;;;;;;5.13;2.40;;;;;;;;;;5037032;28;20497;-90